createdAt,value
2018-11-07T00:00:14.621Z,31.75
2018-11-07T00:02:42.139Z,33.50
2018-11-07T00:05:09.385Z,42.73
2018-11-07T00:07:36.654Z,42.43
2018-11-07T00:10:05.228Z,25.57
2018-11-07T00:12:32.501Z,21.25
2018-11-07T00:14:59.764Z,20.12
2018-11-07T00:17:27.036Z,19.45
2018-11-07T00:19:54.328Z,20.20
2018-11-07T00:22:21.621Z,19.87
2018-11-07T00:24:48.894Z,21.68
2018-11-07T00:27:16.160Z,18.92
2018-11-07T00:29:43.441Z,31.33
2018-11-07T00:32:10.720Z,25.05
2018-11-07T00:34:37.974Z,20.92
2018-11-07T00:37:05.329Z,20.23
2018-11-07T00:39:32.593Z,24.20
2018-11-07T00:41:59.912Z,20.75
2018-11-07T00:44:27.163Z,21.97
2018-11-07T00:46:54.435Z,19.82
2018-11-07T00:49:21.718Z,17.92
2018-11-07T00:51:49.002Z,24.82
2018-11-07T00:54:16.299Z,23.20
2018-11-07T00:56:43.548Z,21.40
2018-11-07T00:59:10.825Z,19.57
2018-11-07T01:01:38.109Z,19.67
2018-11-07T01:04:05.405Z,23.40
2018-11-07T01:06:32.670Z,15.98
2018-11-07T01:08:59.940Z,17.50
2018-11-07T01:11:27.216Z,18.35
2018-11-07T01:13:54.485Z,25.00
2018-11-07T01:16:21.801Z,22.58
2018-11-07T01:18:49.073Z,25.02
2018-11-07T01:21:16.352Z,25.48
2018-11-07T01:23:43.624Z,23.38
2018-11-07T01:26:10.897Z,23.87
2018-11-07T01:28:38.167Z,26.35
2018-11-07T01:31:05.549Z,26.80
2018-11-07T01:33:32.820Z,28.12
2018-11-07T01:36:00.095Z,24.32
2018-11-07T01:38:27.380Z,22.82
2018-11-07T01:40:54.653Z,21.27
2018-11-07T01:43:21.933Z,19.87
2018-11-07T01:45:49.202Z,20.00
2018-11-07T01:48:16.479Z,19.67
2018-11-07T01:50:43.760Z,19.87
2018-11-07T01:53:11.043Z,20.60
2018-11-07T01:55:38.317Z,23.60
2018-11-07T01:58:05.609Z,20.45
2018-11-07T02:00:32.896Z,20.77
2018-11-07T02:03:00.165Z,18.67
2018-11-07T02:05:27.457Z,18.90
2018-11-07T02:07:54.725Z,19.23
2018-11-07T02:10:21.989Z,17.95
2018-11-07T02:12:49.245Z,18.10
2018-11-07T02:15:16.533Z,18.77
2018-11-07T02:17:43.793Z,17.07
2018-11-07T02:20:11.686Z,17.95
2018-11-07T02:22:38.972Z,14.93
2018-11-07T02:25:06.596Z,15.65
2018-11-07T02:27:33.873Z,16.75
2018-11-07T02:30:01.169Z,17.25
2018-11-07T02:32:28.454Z,17.27
2018-11-07T02:34:55.737Z,17.70
2018-11-07T02:37:22.988Z,17.20
2018-11-07T02:39:50.256Z,21.12
2018-11-07T02:42:17.520Z,21.75
2018-11-07T02:44:44.785Z,19.90
2018-11-07T02:47:12.048Z,20.50
2018-11-07T02:49:39.314Z,19.37
2018-11-07T02:52:06.598Z,18.05
2018-11-07T02:54:33.866Z,18.23
2018-11-07T02:57:01.136Z,17.40
2018-11-07T02:59:28.396Z,17.00
2018-11-07T03:01:55.661Z,16.35
2018-11-07T03:04:22.934Z,15.75
2018-11-07T03:06:50.214Z,15.50
2018-11-07T03:09:17.473Z,13.83
2018-11-07T03:11:44.757Z,16.40
2018-11-07T03:14:12.022Z,15.63
2018-11-07T03:16:39.297Z,15.93
2018-11-07T03:19:06.961Z,14.95
2018-11-07T03:21:34.244Z,16.45
2018-11-07T03:24:01.500Z,16.30
2018-11-07T03:26:28.777Z,16.60
2018-11-07T03:28:56.042Z,16.00
2018-11-07T03:31:23.350Z,16.60
2018-11-07T03:33:50.649Z,16.27
2018-11-07T03:36:17.921Z,17.25
2018-11-07T03:38:45.217Z,15.80
2018-11-07T03:41:12.531Z,15.00
2018-11-07T03:43:39.901Z,14.60
2018-11-07T03:46:07.235Z,15.40
2018-11-07T03:48:34.589Z,15.40
2018-11-07T03:51:01.981Z,15.20
2018-11-07T03:53:29.316Z,14.53
2018-11-07T03:55:56.649Z,13.70
2018-11-07T03:58:23.949Z,14.68
2018-11-07T04:00:51.241Z,13.72
2018-11-07T04:03:18.524Z,15.25
2018-11-07T04:05:45.804Z,14.07
2018-11-07T04:08:13.071Z,15.28
2018-11-07T04:10:40.346Z,14.78
2018-11-07T04:13:07.632Z,15.15
2018-11-07T04:15:34.953Z,15.95
2018-11-07T04:18:02.328Z,16.27
2018-11-07T04:20:29.607Z,15.53
2018-11-07T04:22:56.881Z,14.00
2018-11-07T04:25:24.156Z,13.68
2018-11-07T04:27:51.435Z,16.85
2018-11-07T04:30:18.697Z,15.35
2018-11-07T04:32:45.976Z,14.65
2018-11-07T04:35:13.233Z,14.65
2018-11-07T04:37:41.213Z,14.10
2018-11-07T04:40:09.772Z,14.05
2018-11-07T04:42:37.069Z,13.55
2018-11-07T04:45:04.457Z,13.30
2018-11-07T04:47:31.813Z,11.97
2018-11-07T04:49:59.174Z,12.55
2018-11-07T04:52:26.465Z,12.23
2018-11-07T04:54:53.736Z,12.07
2018-11-07T04:57:21.005Z,11.78
2018-11-07T04:59:48.277Z,11.65
2018-11-07T05:02:15.532Z,13.32
2018-11-07T05:04:42.808Z,13.28
2018-11-07T05:07:10.081Z,12.95
2018-11-07T05:09:37.348Z,11.55
2018-11-07T05:12:05.334Z,12.20
2018-11-07T05:14:32.608Z,12.30
2018-11-07T05:16:59.857Z,12.60
2018-11-07T05:19:27.960Z,12.55
2018-11-07T05:21:55.242Z,12.80
2018-11-07T05:24:22.529Z,14.07
2018-11-07T05:26:49.801Z,19.05
2018-11-07T05:29:17.146Z,16.75
2018-11-07T05:31:44.438Z,16.40
2018-11-07T05:34:11.775Z,15.83
2018-11-07T05:36:39.056Z,18.10
2018-11-07T05:39:07.204Z,18.02
2018-11-07T05:41:34.539Z,16.75
2018-11-07T05:44:01.829Z,15.93
2018-11-07T05:46:29.092Z,17.60
2018-11-07T05:48:56.368Z,18.25
2018-11-07T05:51:23.624Z,17.40
2018-11-07T05:53:50.881Z,18.67
2018-11-07T05:56:18.139Z,18.52
2018-11-07T05:58:45.397Z,17.55
2018-11-07T06:01:12.667Z,16.70
2018-11-07T06:03:40.664Z,14.73
2018-11-07T06:06:07.946Z,13.95
2018-11-07T06:08:35.219Z,13.55
2018-11-07T06:11:02.543Z,13.85
2018-11-07T06:13:29.773Z,13.32
2018-11-07T06:15:57.073Z,13.98
2018-11-07T06:18:24.322Z,14.25
2018-11-07T06:20:51.649Z,34.08
2018-11-07T06:23:18.869Z,35.85
2018-11-07T06:25:46.153Z,18.67
2018-11-07T06:28:13.412Z,20.82
2018-11-07T06:30:40.677Z,19.90
2018-11-07T06:33:07.965Z,20.65
2018-11-07T06:35:35.232Z,21.02
2018-11-07T06:38:02.508Z,19.92
2018-11-07T06:40:29.769Z,20.68
2018-11-07T06:42:57.041Z,20.75
2018-11-07T06:45:24.292Z,24.40
2018-11-07T06:47:51.581Z,34.50
2018-11-07T06:50:18.824Z,23.38
2018-11-07T06:52:46.090Z,23.92
2018-11-07T06:55:13.370Z,17.57
2018-11-07T06:57:40.634Z,17.35
2018-11-07T07:00:13.140Z,15.68
2018-11-07T07:02:40.468Z,14.05
2018-11-07T07:05:07.886Z,11.97
2018-11-07T07:07:35.357Z,12.03
2018-11-07T07:10:02.681Z,13.75
2018-11-07T07:12:30.084Z,13.30
2018-11-07T07:14:57.356Z,12.85
2018-11-07T07:17:24.665Z,12.95
2018-11-07T07:19:51.925Z,13.45
2018-11-07T07:22:19.197Z,12.50
2018-11-07T07:24:46.465Z,12.45
2018-11-07T07:27:13.740Z,11.70
2018-11-07T07:29:41.004Z,11.48
2018-11-07T07:32:08.293Z,11.18
2018-11-07T07:34:35.552Z,12.33
2018-11-07T07:37:02.813Z,11.75
2018-11-07T07:39:30.093Z,12.15
2018-11-07T07:41:57.400Z,13.05
2018-11-07T07:44:24.673Z,11.60
2018-11-07T07:46:51.938Z,11.40
2018-11-07T07:49:19.333Z,11.18
2018-11-07T07:51:46.492Z,10.15
2018-11-07T07:54:13.904Z,11.03
2018-11-07T07:56:41.154Z,11.33
2018-11-07T07:59:08.519Z,10.00
2018-11-07T08:01:35.885Z,9.78
2018-11-07T08:04:03.181Z,9.35
2018-11-07T08:06:33.592Z,9.90
2018-11-07T08:09:00.877Z,9.05
2018-11-07T08:11:28.141Z,9.48
2018-11-07T08:13:55.437Z,9.73
2018-11-07T08:16:22.681Z,10.00
2018-11-07T08:18:49.952Z,9.35
2018-11-07T08:21:17.291Z,8.25
2018-11-07T08:23:44.501Z,9.20
2018-11-07T08:26:11.773Z,8.33
2018-11-07T08:28:39.040Z,7.92
2018-11-07T08:31:06.319Z,8.75
2018-11-07T08:33:33.597Z,8.35
2018-11-07T08:36:00.870Z,9.08
2018-11-07T08:38:28.137Z,8.68
2018-11-07T08:40:55.416Z,9.18
2018-11-07T08:43:22.673Z,9.60
2018-11-07T08:45:49.946Z,10.88
2018-11-07T08:48:17.281Z,10.55
2018-11-07T08:50:44.509Z,9.70
2018-11-07T08:53:11.801Z,9.53
2018-11-07T08:55:39.090Z,10.00
2018-11-07T08:58:06.361Z,10.53
2018-11-07T09:00:33.656Z,9.75
2018-11-07T09:03:00.925Z,10.43
2018-11-07T09:05:28.200Z,11.18
2018-11-07T09:07:55.470Z,10.20
2018-11-07T09:10:23.412Z,11.08
2018-11-07T09:12:50.677Z,9.93
2018-11-07T09:15:19.137Z,11.10
2018-11-07T09:17:46.445Z,10.05
2018-11-07T09:20:18.568Z,11.80
2018-11-07T09:22:45.837Z,10.65
2018-11-07T09:25:13.867Z,10.82
2018-11-07T09:27:41.406Z,11.88
2018-11-07T09:30:10.529Z,11.33
2018-11-07T09:32:37.817Z,11.10
2018-11-07T09:35:06.050Z,12.53
2018-11-07T09:37:33.402Z,12.05
2018-11-07T09:40:00.663Z,14.47
2018-11-07T09:42:27.989Z,13.53
2018-11-07T09:44:55.248Z,13.58
2018-11-07T09:47:22.586Z,12.95
2018-11-07T09:49:49.812Z,13.30
2018-11-07T09:52:17.145Z,14.03
2018-11-07T09:54:44.411Z,13.62
2018-11-07T09:57:11.685Z,12.58
2018-11-07T09:59:38.949Z,14.30
2018-11-07T10:02:06.225Z,11.60
2018-11-07T10:04:33.484Z,14.10
2018-11-07T10:07:00.769Z,14.07
2018-11-07T10:09:28.043Z,15.85
2018-11-07T10:11:55.313Z,14.33
2018-11-07T10:14:22.576Z,15.23
2018-11-07T10:16:49.847Z,14.70
2018-11-07T10:19:17.117Z,13.38
2018-11-07T10:21:44.398Z,14.73
2018-11-07T10:24:11.676Z,16.07
2018-11-07T10:26:38.971Z,15.68
2018-11-07T10:29:06.416Z,15.23
2018-11-07T10:31:33.520Z,14.27
2018-11-07T10:34:00.845Z,15.85
2018-11-07T10:36:28.113Z,14.30
2018-11-07T10:38:55.408Z,15.40
2018-11-07T10:41:22.697Z,14.80
2018-11-07T10:43:50.048Z,14.57
2018-11-07T10:46:17.330Z,15.83
2018-11-07T10:48:44.617Z,15.48
2018-11-07T10:51:11.881Z,14.35
2018-11-07T10:53:39.173Z,15.70
2018-11-07T10:56:06.457Z,14.93
2018-11-07T10:58:33.720Z,14.70
2018-11-07T11:01:06.592Z,16.07
2018-11-07T11:03:33.886Z,16.53
2018-11-07T11:06:01.150Z,16.47
2018-11-07T11:08:28.422Z,16.10
2018-11-07T11:10:55.737Z,15.43
2018-11-07T11:13:23.844Z,17.27
2018-11-07T11:15:51.171Z,16.33
2018-11-07T11:18:18.515Z,15.10
2018-11-07T11:20:46.028Z,17.52
2018-11-07T11:23:13.352Z,16.07
2018-11-07T11:25:40.707Z,14.93
2018-11-07T11:28:08.154Z,16.35
2018-11-07T11:30:35.438Z,16.13
2018-11-07T11:33:02.701Z,16.47
2018-11-07T11:35:29.992Z,17.43
2018-11-07T11:37:57.353Z,14.20
2018-11-07T11:40:24.648Z,15.70
2018-11-07T11:42:51.998Z,17.57
2018-11-07T11:45:19.289Z,16.40
2018-11-07T11:47:46.775Z,15.33
2018-11-07T11:50:16.405Z,16.93
2018-11-07T11:52:44.689Z,16.70
2018-11-07T11:55:12.029Z,15.30
2018-11-07T11:57:39.990Z,17.97
2018-11-07T12:00:09.499Z,18.10
2018-11-07T12:02:36.504Z,16.30
2018-11-07T12:05:04.633Z,17.40
2018-11-07T12:07:31.938Z,17.63
2018-11-07T12:09:59.226Z,17.33
2018-11-07T12:12:26.520Z,17.37
2018-11-07T12:14:53.793Z,16.83
2018-11-07T12:17:21.064Z,17.40
2018-11-07T12:19:48.336Z,17.47
2018-11-07T12:22:15.600Z,16.23
2018-11-07T12:24:42.898Z,17.00
2018-11-07T12:27:10.245Z,17.20
2018-11-07T12:29:37.506Z,17.60
2018-11-07T12:32:04.843Z,18.80
2018-11-07T12:34:32.104Z,17.20
2018-11-07T12:36:59.372Z,17.37
2018-11-07T12:39:26.620Z,19.20
2018-11-07T12:41:53.896Z,18.60
2018-11-07T12:44:21.161Z,19.10
2018-11-07T12:46:48.446Z,19.23
2018-11-07T12:49:15.696Z,20.20
2018-11-07T12:51:42.970Z,19.30
2018-11-07T12:54:10.227Z,18.50
2018-11-07T12:56:37.500Z,17.30
2018-11-07T12:59:04.819Z,17.67
2018-11-07T13:01:32.094Z,17.13
2018-11-07T13:03:59.365Z,17.70
2018-11-07T13:06:26.653Z,20.40
2018-11-07T13:08:53.953Z,17.97
2018-11-07T13:11:21.286Z,17.70
2018-11-07T13:13:48.555Z,18.43
2018-11-07T13:16:15.957Z,16.43
2018-11-07T13:18:43.216Z,16.60
2018-11-07T13:21:10.508Z,14.77
2018-11-07T13:23:37.770Z,16.17
2018-11-07T13:26:05.040Z,15.40
2018-11-07T13:28:32.332Z,14.57
2018-11-07T13:30:59.585Z,14.30
2018-11-07T13:33:26.871Z,13.93
2018-11-07T13:35:54.120Z,13.23
2018-11-07T13:38:21.570Z,14.53
2018-11-07T13:40:48.666Z,13.80
2018-11-07T13:43:15.921Z,13.50
2018-11-07T13:45:43.210Z,13.30
2018-11-07T13:48:10.533Z,13.43
2018-11-07T13:50:37.797Z,12.20
2018-11-07T13:53:05.115Z,13.60
2018-11-07T13:55:32.336Z,14.33
2018-11-07T13:57:59.600Z,12.20
2018-11-07T14:00:26.868Z,13.50
2018-11-07T14:02:54.149Z,12.47
2018-11-07T14:05:21.539Z,14.50
2018-11-07T14:07:48.756Z,13.67
2018-11-07T14:10:21.957Z,12.97
2018-11-07T14:12:49.533Z,12.50
2018-11-07T14:15:16.848Z,12.77
2018-11-07T14:17:44.291Z,13.23
2018-11-07T14:20:11.575Z,13.27
2018-11-07T14:22:39.356Z,10.70
2018-11-07T14:25:07.404Z,12.30
2018-11-07T14:27:34.768Z,11.80
2018-11-07T14:30:02.274Z,10.63
2018-11-07T14:32:30.116Z,11.50
2018-11-07T14:34:57.453Z,10.77
2018-11-07T14:37:24.721Z,10.30
2018-11-07T14:39:52.064Z,8.80
2018-11-07T14:42:19.348Z,11.80
2018-11-07T14:44:46.640Z,12.00
2018-11-07T14:47:14.024Z,13.70
2018-11-07T14:49:41.264Z,13.77
2018-11-07T14:52:08.537Z,13.80
2018-11-07T14:54:35.804Z,13.70
2018-11-07T14:57:03.179Z,15.93
2018-11-07T14:59:30.473Z,15.10
2018-11-07T15:01:57.764Z,16.03
2018-11-07T15:04:25.041Z,15.47
2018-11-07T15:06:52.340Z,16.67
2018-11-07T15:09:19.608Z,17.50
2018-11-07T15:11:46.933Z,17.27
2018-11-07T15:14:14.169Z,17.93
2018-11-07T15:16:41.428Z,18.20
2018-11-07T15:19:08.825Z,17.60
2018-11-07T15:21:36.101Z,17.20
2018-11-07T15:24:03.514Z,17.90
2018-11-07T15:26:31.081Z,17.07
2018-11-07T15:28:58.433Z,17.27
2018-11-07T15:31:25.781Z,16.83
2018-11-07T15:33:53.057Z,16.30
2018-11-07T15:36:20.528Z,16.70
2018-11-07T15:38:47.797Z,21.27
2018-11-07T15:41:15.121Z,19.37
2018-11-07T15:43:42.407Z,17.63
2018-11-07T15:46:09.706Z,18.60
2018-11-07T15:48:37.945Z,18.87
2018-11-07T15:51:11.700Z,19.30
2018-11-07T15:53:39.457Z,20.10
2018-11-07T15:56:06.928Z,18.50
2018-11-07T15:58:34.323Z,18.23
2018-11-07T16:01:01.718Z,18.80
2018-11-07T16:03:34.668Z,18.20
2018-11-07T16:06:01.991Z,18.37
2018-11-07T16:08:29.255Z,21.23
2018-11-07T16:10:56.527Z,20.67
2018-11-07T16:13:23.967Z,22.07
2018-11-07T16:15:51.143Z,21.17
2018-11-07T16:18:18.421Z,19.30
2018-11-07T16:20:45.732Z,19.67
2018-11-07T16:23:13.018Z,18.33
2018-11-07T16:25:40.447Z,19.10
2018-11-07T16:28:07.832Z,19.33
2018-11-07T16:30:35.174Z,20.53
2018-11-07T16:33:02.541Z,19.57
2018-11-07T16:35:29.893Z,22.63
2018-11-07T16:37:57.220Z,23.40
2018-11-07T16:40:24.500Z,24.80
2018-11-07T16:42:51.848Z,24.40
2018-11-07T16:45:19.116Z,29.80
2018-11-07T16:47:46.511Z,37.70
2018-11-07T16:50:14.757Z,40.93
2018-11-07T16:52:42.164Z,38.13
2018-11-07T16:55:09.356Z,29.90
2018-11-07T16:57:37.742Z,23.93
2018-11-07T17:00:07.057Z,23.70
2018-11-07T17:02:34.364Z,26.20
2018-11-07T17:05:01.782Z,28.30
2018-11-07T17:07:29.066Z,26.13
2018-11-07T17:09:56.348Z,26.30
2018-11-07T17:12:23.616Z,25.92
2018-11-07T17:14:50.908Z,27.10
2018-11-07T17:17:18.193Z,41.43
2018-11-07T17:19:45.470Z,49.93
2018-11-07T17:22:12.739Z,51.73
2018-11-07T17:24:40.126Z,44.97
2018-11-07T17:27:07.516Z,36.87
2018-11-07T17:29:34.817Z,30.50
2018-11-07T17:32:02.922Z,39.60
2018-11-07T17:34:30.175Z,39.00
2018-11-07T17:36:57.445Z,38.10
2018-11-07T17:39:24.815Z,37.50
2018-11-07T17:41:52.092Z,28.70
2018-11-07T17:44:19.404Z,27.27
2018-11-07T17:46:46.739Z,20.40
2018-11-07T17:49:14.140Z,21.60
2018-11-07T17:51:41.514Z,28.03
2018-11-07T17:54:08.780Z,31.63
2018-11-07T17:56:36.088Z,33.30
2018-11-07T17:59:03.454Z,32.43
2018-11-07T18:01:30.736Z,28.07
2018-11-07T18:03:58.123Z,22.40
2018-11-07T18:06:25.456Z,22.17
2018-11-07T18:08:52.761Z,22.03
2018-11-07T18:11:20.037Z,22.80
2018-11-07T18:13:49.222Z,24.25
2018-11-07T18:16:16.521Z,24.73
2018-11-07T18:18:43.829Z,24.03
2018-11-07T18:21:11.607Z,24.53
2018-11-07T18:23:42.285Z,21.77
2018-11-07T18:26:09.588Z,21.23
2018-11-07T18:28:38.489Z,21.97
2018-11-07T18:31:06.787Z,20.12
2018-11-07T18:33:34.780Z,20.87
2018-11-07T18:36:03.630Z,22.32
2018-11-07T18:38:32.690Z,24.50
2018-11-07T18:41:01.089Z,22.02
2018-11-07T18:43:32.824Z,21.07
2018-11-07T18:46:01.123Z,22.77
2018-11-07T18:48:29.149Z,23.45
2018-11-07T18:50:58.092Z,20.80
2018-11-07T18:53:26.319Z,21.33
2018-11-07T18:55:54.560Z,22.58
2018-11-07T18:58:22.012Z,21.90
2018-11-07T19:00:49.416Z,23.98
2018-11-07T19:03:16.685Z,25.95
2018-11-07T19:05:44.008Z,24.63
2018-11-07T19:08:11.293Z,27.22
2018-11-07T19:10:38.612Z,33.75
2018-11-07T19:13:05.913Z,32.73
2018-11-07T19:15:33.253Z,39.23
2018-11-07T19:18:00.544Z,42.75
2018-11-07T19:20:27.877Z,40.43
2018-11-07T19:22:55.215Z,39.55
2018-11-07T19:25:22.541Z,37.42
2018-11-07T19:27:49.819Z,34.60
2018-11-07T19:30:20.486Z,28.83
2018-11-07T19:32:48.583Z,27.87
2018-11-07T19:35:17.537Z,27.32
2018-11-07T19:37:45.280Z,27.87
2018-11-07T19:40:14.034Z,28.60
2018-11-07T19:42:41.749Z,29.12
2018-11-07T19:45:11.085Z,29.00
2018-11-07T19:47:38.794Z,31.97
2018-11-07T19:50:06.818Z,30.80
2018-11-07T19:52:34.444Z,31.23
2018-11-07T19:55:10.512Z,30.30
2018-11-07T19:57:38.164Z,38.05
2018-11-07T20:00:07.996Z,46.70
2018-11-07T20:02:35.284Z,47.27
2018-11-07T20:05:02.889Z,41.75
2018-11-07T20:07:30.208Z,43.25
2018-11-07T20:09:57.513Z,36.63
2018-11-07T20:12:24.807Z,44.42
2018-11-07T20:14:52.416Z,39.98
2018-11-07T20:17:19.785Z,36.68
2018-11-07T20:19:52.397Z,29.65
2018-11-07T20:22:20.432Z,28.92
2018-11-07T20:24:47.923Z,29.10
2018-11-07T20:27:15.249Z,32.60
2018-11-07T20:29:42.522Z,34.63
2018-11-07T20:32:11.097Z,39.53
2018-11-07T20:34:38.387Z,37.83
2018-11-07T20:37:05.675Z,33.08
2018-11-07T20:39:32.944Z,30.17
2018-11-07T20:42:00.274Z,28.30
2018-11-07T20:44:27.497Z,29.45
2018-11-07T20:46:54.761Z,33.30
2018-11-07T20:49:22.029Z,25.02
2018-11-07T20:51:49.304Z,23.30
2018-11-07T20:54:16.580Z,23.57
2018-11-07T20:56:43.852Z,24.23
2018-11-07T20:59:11.120Z,26.25
2018-11-07T21:01:38.433Z,26.07
2018-11-07T21:04:05.700Z,31.48
2018-11-07T21:06:32.981Z,34.00
2018-11-07T21:09:00.253Z,35.50
2018-11-07T21:11:27.519Z,32.75
2018-11-07T21:13:54.830Z,38.65
2018-11-07T21:16:22.179Z,43.90
2018-11-07T21:18:49.629Z,42.35
2018-11-07T21:21:17.056Z,34.10
2018-11-07T21:23:44.472Z,25.40
2018-11-07T21:26:11.772Z,28.65
2018-11-07T21:28:39.113Z,28.32
2018-11-07T21:31:06.429Z,25.50
2018-11-07T21:33:33.865Z,27.60
2018-11-07T21:36:01.220Z,26.17
2018-11-07T21:38:28.533Z,25.55
2018-11-07T21:40:55.824Z,23.32
2018-11-07T21:43:23.132Z,24.35
2018-11-07T21:45:50.421Z,22.60
2018-11-07T21:48:17.800Z,21.90
2018-11-07T21:50:45.108Z,24.55
2018-11-07T21:53:12.375Z,23.22
2018-11-07T21:55:39.656Z,23.12
2018-11-07T21:58:06.928Z,23.12
2018-11-07T22:00:34.283Z,24.85
2018-11-07T22:03:01.581Z,24.50
2018-11-07T22:05:28.984Z,22.93
2018-11-07T22:07:56.488Z,24.63
2018-11-07T22:10:23.778Z,23.67
2018-11-07T22:12:51.584Z,25.05
2018-11-07T22:15:18.936Z,24.12
2018-11-07T22:17:46.223Z,23.70
2018-11-07T22:20:16.904Z,25.35
2018-11-07T22:22:44.681Z,26.62
2018-11-07T22:25:12.385Z,26.93
2018-11-07T22:27:39.735Z,26.27
2018-11-07T22:30:09.222Z,27.42
2018-11-07T22:32:36.784Z,26.97
2018-11-07T22:35:04.376Z,26.57
2018-11-07T22:37:32.189Z,31.00
2018-11-07T22:39:59.459Z,33.55
2018-11-07T22:42:26.929Z,26.75
2018-11-07T22:44:54.451Z,24.05
2018-11-07T22:47:21.731Z,24.75
2018-11-07T22:49:49.366Z,24.10
2018-11-07T22:52:16.640Z,23.60
2018-11-07T22:54:43.919Z,21.60
2018-11-07T22:57:11.214Z,20.77
2018-11-07T22:59:38.581Z,20.45
2018-11-07T23:02:05.910Z,20.05
2018-11-07T23:04:33.177Z,19.67
2018-11-07T23:07:00.464Z,21.02
2018-11-07T23:09:27.753Z,18.05
2018-11-07T23:11:55.161Z,18.82
2018-11-07T23:14:22.426Z,18.23
2018-11-07T23:16:49.706Z,18.75
2018-11-07T23:19:17.038Z,17.60
2018-11-07T23:21:44.272Z,17.85
2018-11-07T23:24:11.578Z,17.52
2018-11-07T23:26:38.856Z,17.55
2018-11-07T23:29:06.132Z,17.73
2018-11-07T23:31:33.425Z,18.85
2018-11-07T23:34:01.349Z,18.73
2018-11-07T23:36:28.793Z,18.02
2018-11-07T23:38:56.092Z,17.55
2018-11-07T23:41:23.425Z,17.37
2018-11-07T23:43:50.709Z,19.15
2018-11-07T23:46:18.060Z,19.17
2018-11-07T23:48:45.345Z,18.30
2018-11-07T23:51:12.629Z,17.85
2018-11-07T23:53:39.917Z,17.87
2018-11-07T23:56:07.188Z,16.27
2018-11-07T23:58:34.569Z,18.05
